createdAt,value
2016-09-23T00:00:38.095Z,1015.53
2016-09-23T00:01:38.080Z,1015.52
2016-09-23T00:02:38.064Z,1015.54
2016-09-23T00:03:38.045Z,1015.47
2016-09-23T00:04:38.030Z,1015.51
2016-09-23T00:05:38.015Z,1015.52
2016-09-23T00:06:37.999Z,1015.53
2016-09-23T00:07:37.982Z,1015.54
2016-09-23T00:08:37.963Z,1015.53
2016-09-23T00:09:37.949Z,1015.54
2016-09-23T00:10:37.930Z,1015.56
2016-09-23T00:11:37.915Z,1015.57
2016-09-23T00:12:37.900Z,1015.55
2016-09-23T00:13:37.883Z,1015.54
2016-09-23T00:14:37.869Z,1015.58
2016-09-23T00:15:37.848Z,1015.55
2016-09-23T00:16:37.837Z,1015.55
2016-09-23T00:17:37.817Z,1015.55
2016-09-23T00:18:37.801Z,1015.54
2016-09-23T00:19:37.782Z,1015.51
2016-09-23T00:20:37.764Z,1015.53
2016-09-23T00:21:37.753Z,1015.53
2016-09-23T00:22:37.732Z,1015.56
2016-09-23T00:23:37.717Z,1015.56
2016-09-23T00:24:37.700Z,1015.54
2016-09-23T00:25:37.684Z,1015.51
2016-09-23T00:26:37.669Z,1015.52
2016-09-23T00:27:37.652Z,1015.54
2016-09-23T00:28:37.634Z,1015.55
2016-09-23T00:29:37.616Z,1015.54
2016-09-23T00:30:37.602Z,1015.53
2016-09-23T00:31:37.589Z,1015.53
2016-09-23T00:32:37.576Z,1015.53
2016-09-23T00:33:37.550Z,1015.53
2016-09-23T00:34:37.537Z,1015.52
2016-09-23T00:35:37.516Z,1015.53
2016-09-23T00:36:37.499Z,1015.5
2016-09-23T00:37:37.487Z,1015.57
2016-09-23T00:38:37.469Z,1015.54
2016-09-23T00:39:37.453Z,1015.56
2016-09-23T00:40:37.436Z,1015.58
2016-09-23T00:41:37.417Z,1015.56
2016-09-23T00:42:37.402Z,1015.57
2016-09-23T00:43:37.385Z,1015.58
2016-09-23T00:44:37.367Z,1015.57
2016-09-23T00:45:37.352Z,1015.6
2016-09-23T00:46:37.335Z,1015.61
2016-09-23T00:47:37.320Z,1015.6
2016-09-23T00:48:37.302Z,1015.6
2016-09-23T00:49:37.286Z,1015.62
2016-09-23T00:50:37.270Z,1015.59
2016-09-23T00:51:37.253Z,1015.61
2016-09-23T00:52:37.234Z,1015.67
2016-09-23T00:53:37.218Z,1015.64
2016-09-23T00:54:37.209Z,1015.6
2016-09-23T00:55:37.192Z,1015.66
2016-09-23T00:56:37.172Z,1015.68
2016-09-23T00:57:37.153Z,1015.65
2016-09-23T00:58:37.135Z,1015.67
2016-09-23T00:59:37.118Z,1015.63
2016-09-23T01:00:37.102Z,1015.67
2016-09-23T01:01:37.089Z,1015.65
2016-09-23T01:02:37.071Z,1015.68
2016-09-23T01:03:37.054Z,1015.73
2016-09-23T01:04:37.036Z,1015.72
2016-09-23T01:05:37.021Z,1015.67
2016-09-23T01:06:37.008Z,1015.7
2016-09-23T01:07:36.988Z,1015.67
2016-09-23T01:08:36.973Z,1015.69
2016-09-23T01:09:36.956Z,1015.71
2016-09-23T01:10:36.938Z,1015.74
2016-09-23T01:11:36.923Z,1015.75
2016-09-23T01:12:36.908Z,1015.75
2016-09-23T01:13:36.887Z,1015.77
2016-09-23T01:14:36.872Z,1015.78
2016-09-23T01:15:36.859Z,1015.77
2016-09-23T01:16:36.838Z,1015.77
2016-09-23T01:17:36.821Z,1015.77
2016-09-23T01:18:36.806Z,1015.8
2016-09-23T01:19:36.790Z,1015.79
2016-09-23T01:20:36.771Z,1015.8
2016-09-23T01:21:36.759Z,1015.82
2016-09-23T01:22:36.738Z,1015.84
2016-09-23T01:23:36.726Z,1015.85
2016-09-23T01:24:36.708Z,1015.83
2016-09-23T01:25:36.691Z,1015.82
2016-09-23T01:26:36.673Z,1015.84
2016-09-23T01:27:36.657Z,1015.83
2016-09-23T01:28:36.640Z,1015.8
2016-09-23T01:29:36.624Z,1015.82
2016-09-23T01:30:36.607Z,1015.81
2016-09-23T01:31:36.593Z,1015.79
2016-09-23T01:32:36.576Z,1015.81
2016-09-23T01:33:36.557Z,1015.82
2016-09-23T01:34:36.543Z,1015.78
2016-09-23T01:35:36.524Z,1015.78
2016-09-23T01:36:36.510Z,1015.8
2016-09-23T01:37:36.494Z,1015.81
2016-09-23T01:38:36.475Z,1015.79
2016-09-23T01:39:36.460Z,1015.78
2016-09-23T01:40:36.445Z,1015.79
2016-09-23T01:41:36.429Z,1015.76
2016-09-23T01:42:36.408Z,1015.77
2016-09-23T01:43:36.394Z,1015.74
2016-09-23T01:44:36.380Z,1015.78
2016-09-23T01:45:36.362Z,1015.76
2016-09-23T01:46:36.343Z,1015.76
2016-09-23T01:47:36.326Z,1015.76
2016-09-23T01:48:36.311Z,1015.77
2016-09-23T01:49:36.294Z,1015.76
2016-09-23T01:50:36.279Z,1015.78
2016-09-23T01:51:36.275Z,1015.79
2016-09-23T01:52:36.244Z,1015.79
2016-09-23T01:53:36.227Z,1015.83
2016-09-23T01:54:36.211Z,1015.87
2016-09-23T01:55:36.201Z,1015.86
2016-09-23T01:56:36.179Z,1015.8
2016-09-23T01:57:36.162Z,1015.8
2016-09-23T01:58:36.144Z,1015.82
2016-09-23T01:59:36.131Z,1015.81
2016-09-23T02:00:36.115Z,1015.81
2016-09-23T02:01:36.101Z,1015.81
2016-09-23T02:02:36.080Z,1015.81
2016-09-23T02:03:36.064Z,1015.83
2016-09-23T02:04:36.052Z,1015.81
2016-09-23T02:05:36.034Z,1015.8
2016-09-23T02:06:36.015Z,1015.8
2016-09-23T02:07:36.000Z,1015.82
2016-09-23T02:08:35.983Z,1015.86
2016-09-23T02:09:35.979Z,1015.84
2016-09-23T02:10:35.948Z,1015.88
2016-09-23T02:11:35.931Z,1015.84
2016-09-23T02:12:35.915Z,1015.84
2016-09-23T02:13:35.902Z,1015.88
2016-09-23T02:14:35.883Z,1015.85
2016-09-23T02:15:35.866Z,1015.9
2016-09-23T02:16:35.854Z,1015.88
2016-09-23T02:17:35.833Z,1015.87
2016-09-23T02:18:35.820Z,1015.85
2016-09-23T02:19:35.801Z,1015.89
2016-09-23T02:20:35.785Z,1015.86
2016-09-23T02:21:35.768Z,1015.87
2016-09-23T02:22:35.753Z,1015.88
2016-09-23T02:23:35.736Z,1015.88
2016-09-23T02:24:35.719Z,1015.89
2016-09-23T02:25:35.705Z,1015.9
2016-09-23T02:26:35.687Z,1015.91
2016-09-23T02:27:35.671Z,1015.93
2016-09-23T02:28:35.653Z,1015.89
2016-09-23T02:29:35.636Z,1015.92
2016-09-23T02:30:35.620Z,1015.97
2016-09-23T02:31:35.604Z,1015.99
2016-09-23T02:32:35.589Z,1016.03
2016-09-23T02:33:35.575Z,1016.03
2016-09-23T02:34:35.557Z,1016.03
2016-09-23T02:35:35.541Z,1015.97
2016-09-23T02:36:35.524Z,1016.02
2016-09-23T02:37:35.507Z,1016.07
2016-09-23T02:38:35.490Z,1016.03
2016-09-23T02:39:35.475Z,1016.02
2016-09-23T02:40:35.459Z,1016.05
2016-09-23T02:41:35.444Z,1016.01
2016-09-23T02:42:35.424Z,1016.03
2016-09-23T02:43:35.407Z,1016.04
2016-09-23T02:44:35.396Z,1016.04
2016-09-23T02:45:35.376Z,1016.02
2016-09-23T02:46:35.358Z,1016.04
2016-09-23T02:47:35.344Z,1016.04
2016-09-23T02:48:35.329Z,1015.99
2016-09-23T02:49:35.308Z,1016.04
2016-09-23T02:50:35.294Z,1015.98
2016-09-23T02:51:35.279Z,1016.03
2016-09-23T02:52:35.262Z,1016.03
2016-09-23T02:53:35.245Z,1016.03
2016-09-23T02:54:35.228Z,1016.03
2016-09-23T02:55:35.213Z,1016.07
2016-09-23T02:56:35.195Z,1016.08
2016-09-23T02:57:35.184Z,1016.09
2016-09-23T02:58:35.166Z,1016.04
2016-09-23T02:59:35.145Z,1016.06
2016-09-23T03:00:35.131Z,1016.03
2016-09-23T03:01:35.113Z,1015.99
2016-09-23T03:02:35.095Z,1015.97
2016-09-23T03:03:35.084Z,1016.02
2016-09-23T03:04:35.062Z,1016.05
2016-09-23T03:05:35.050Z,1016.01
2016-09-23T03:06:35.033Z,1015.98
2016-09-23T03:07:35.017Z,1016.02
2016-09-23T03:08:35.004Z,1016.03
2016-09-23T03:09:34.985Z,1016.06
2016-09-23T03:10:34.966Z,1016.04
2016-09-23T03:11:34.949Z,1016.04
2016-09-23T03:12:34.934Z,1016.01
2016-09-23T03:13:34.922Z,1016.01
2016-09-23T03:14:34.903Z,1016.03
2016-09-23T03:15:34.884Z,1016.04
2016-09-23T03:16:34.870Z,1016.03
2016-09-23T03:17:34.852Z,1016.02
2016-09-23T03:18:34.839Z,1016.03
2016-09-23T03:19:34.818Z,1016.05
2016-09-23T03:20:34.804Z,1016.02
2016-09-23T03:21:34.786Z,1016.04
2016-09-23T03:22:34.770Z,1016.03
2016-09-23T03:23:34.756Z,1016.05
2016-09-23T03:24:34.737Z,1016.08
2016-09-23T03:25:34.724Z,1016.07
2016-09-23T03:26:34.706Z,1016.02
2016-09-23T03:27:34.692Z,1016.03
2016-09-23T03:28:34.674Z,1016.03
2016-09-23T03:29:34.656Z,1016.01
2016-09-23T03:30:34.646Z,1016.01
2016-09-23T03:31:34.624Z,1016.06
2016-09-23T03:32:34.608Z,1016.05
2016-09-23T03:33:34.589Z,1016.04
2016-09-23T03:34:34.575Z,1016.02
2016-09-23T03:35:34.560Z,1016.03
2016-09-23T03:36:34.547Z,1016.05
2016-09-23T03:37:34.526Z,1016.04
2016-09-23T03:38:34.510Z,1015.97
2016-09-23T03:39:34.497Z,1015.97
2016-09-23T03:40:34.476Z,1015.99
2016-09-23T03:41:34.462Z,1015.99
2016-09-23T03:42:34.446Z,1016.01
2016-09-23T03:43:34.430Z,1015.99
2016-09-23T03:44:34.412Z,1015.96
2016-09-23T03:45:34.396Z,1015.98
2016-09-23T03:46:34.381Z,1015.97
2016-09-23T03:47:34.368Z,1015.97
2016-09-23T03:48:34.350Z,1016.01
2016-09-23T03:49:34.331Z,1015.98
2016-09-23T03:50:34.314Z,1016.01
2016-09-23T03:51:34.299Z,1016
2016-09-23T03:52:34.284Z,1016
2016-09-23T03:53:34.266Z,1016.01
2016-09-23T03:54:34.247Z,1016.02
2016-09-23T03:55:34.232Z,1016.02
2016-09-23T03:56:34.217Z,1016.03
2016-09-23T03:57:34.202Z,1016.07
2016-09-23T03:58:34.190Z,1016.08
2016-09-23T03:59:34.171Z,1016.03
2016-09-23T04:00:34.153Z,1016.05
2016-09-23T04:01:34.135Z,1016.03
2016-09-23T04:02:34.120Z,1016
2016-09-23T04:03:34.102Z,1016.02
2016-09-23T04:04:34.088Z,1016.01
2016-09-23T04:05:34.072Z,1016
2016-09-23T04:06:34.055Z,1016
2016-09-23T04:07:34.039Z,1016.04
2016-09-23T04:08:34.022Z,1016.03
2016-09-23T04:09:34.006Z,1016.02
2016-09-23T04:10:33.987Z,1016.07
2016-09-23T04:11:33.975Z,1016.07
2016-09-23T04:12:33.958Z,1016.03
2016-09-23T04:13:33.950Z,1016.07
2016-09-23T04:14:33.924Z,1016.04
2016-09-23T04:15:33.907Z,1016.03
2016-09-23T04:16:33.894Z,1016.03
2016-09-23T04:17:33.877Z,1016.04
2016-09-23T04:18:33.859Z,1016.08
2016-09-23T04:19:33.843Z,1016.03
2016-09-23T04:20:33.828Z,1016.07
2016-09-23T04:21:33.808Z,1016.04
2016-09-23T04:22:33.793Z,1016.07
2016-09-23T04:23:33.778Z,1016.04
2016-09-23T04:24:33.762Z,1016.08
2016-09-23T04:25:33.745Z,1016.07
2016-09-23T04:26:33.729Z,1016.07
2016-09-23T04:27:33.714Z,1016.1
2016-09-23T04:28:33.703Z,1016.08
2016-09-23T04:29:33.689Z,1016.1
2016-09-23T04:30:33.663Z,1016.09
2016-09-23T04:31:33.648Z,1016.07
2016-09-23T04:32:33.633Z,1016.1
2016-09-23T04:33:33.614Z,1016.1
2016-09-23T04:34:33.600Z,1016.1
2016-09-23T04:35:33.582Z,1016.13
2016-09-23T04:36:33.564Z,1016.14
2016-09-23T04:37:33.549Z,1016.17
2016-09-23T04:38:33.532Z,1016.14
2016-09-23T04:39:33.516Z,1016.12
2016-09-23T04:40:33.499Z,1016.17
2016-09-23T04:41:33.483Z,1016.15
2016-09-23T04:42:33.472Z,1016.15
2016-09-23T04:43:33.451Z,1016.11
2016-09-23T04:44:33.435Z,1016.16
2016-09-23T04:45:33.419Z,1016.13
2016-09-23T04:46:33.416Z,1016.13
2016-09-23T04:47:33.386Z,1016.14
2016-09-23T04:48:33.368Z,1016.15
2016-09-23T04:49:33.352Z,1016.13
2016-09-23T04:50:33.339Z,1016.14
2016-09-23T04:51:33.322Z,1016.12
2016-09-23T04:52:33.306Z,1016.19
2016-09-23T04:53:33.290Z,1016.11
2016-09-23T04:54:33.274Z,1016.12
2016-09-23T04:55:33.255Z,1016.1
2016-09-23T04:56:33.239Z,1016.12
2016-09-23T04:57:33.221Z,1016.13
2016-09-23T04:58:33.205Z,1016.14
2016-09-23T04:59:33.188Z,1016.16
2016-09-23T05:00:33.173Z,1016.11
2016-09-23T05:01:33.158Z,1016.14
2016-09-23T05:02:33.140Z,1016.12
2016-09-23T05:03:33.125Z,1016.14
2016-09-23T05:04:33.108Z,1016.12
2016-09-23T05:05:33.093Z,1016.14
2016-09-23T05:06:33.076Z,1016.14
2016-09-23T05:07:33.060Z,1016.2
2016-09-23T05:08:33.043Z,1016.13
2016-09-23T05:09:33.027Z,1016.18
2016-09-23T05:10:33.013Z,1016.2
2016-09-23T05:11:32.997Z,1016.25
2016-09-23T05:12:32.979Z,1016.27
2016-09-23T05:13:32.961Z,1016.28
2016-09-23T05:14:32.944Z,1016.28
2016-09-23T05:15:32.929Z,1016.27
2016-09-23T05:16:32.913Z,1016.29
2016-09-23T05:17:32.896Z,1016.31
2016-09-23T05:18:32.882Z,1016.32
2016-09-23T05:19:32.868Z,1016.36
2016-09-23T05:20:32.852Z,1016.33
2016-09-23T05:21:32.832Z,1016.31
2016-09-23T05:22:32.814Z,1016.33
2016-09-23T05:23:32.802Z,1016.36
2016-09-23T05:24:32.782Z,1016.32
2016-09-23T05:25:32.766Z,1016.33
2016-09-23T05:26:32.751Z,1016.39
2016-09-23T05:27:32.735Z,1016.4
2016-09-23T05:28:32.717Z,1016.4
2016-09-23T05:29:32.702Z,1016.4
2016-09-23T05:30:32.684Z,1016.38
2016-09-23T05:31:32.671Z,1016.43
2016-09-23T05:32:32.652Z,1016.46
2016-09-23T05:33:32.637Z,1016.47
2016-09-23T05:34:32.620Z,1016.45
2016-09-23T05:35:32.603Z,1016.45
2016-09-23T05:36:32.585Z,1016.44
2016-09-23T05:37:32.571Z,1016.49
2016-09-23T05:38:32.557Z,1016.47
2016-09-23T05:39:32.542Z,1016.5
2016-09-23T05:40:32.523Z,1016.49
2016-09-23T05:41:32.504Z,1016.47
2016-09-23T05:42:32.496Z,1016.47
2016-09-23T05:43:32.475Z,1016.52
2016-09-23T05:44:32.464Z,1016.5
2016-09-23T05:45:32.441Z,1016.57
2016-09-23T05:46:32.425Z,1016.53
2016-09-23T05:47:32.426Z,1016.57
2016-09-23T05:48:32.393Z,1016.54
2016-09-23T05:49:32.378Z,1016.58
2016-09-23T05:50:32.362Z,1016.58
2016-09-23T05:51:32.343Z,1016.61
2016-09-23T05:52:32.326Z,1016.6
2016-09-23T05:53:32.314Z,1016.6
2016-09-23T05:54:32.294Z,1016.61
2016-09-23T05:55:32.278Z,1016.6
2016-09-23T05:56:32.265Z,1016.6
2016-09-23T05:57:32.248Z,1016.61
2016-09-23T05:58:32.231Z,1016.59
2016-09-23T05:59:32.212Z,1016.64
2016-09-23T06:00:32.196Z,1016.71
2016-09-23T06:01:32.180Z,1016.65
2016-09-23T06:02:32.168Z,1016.66
2016-09-23T06:03:32.149Z,1016.69
2016-09-23T06:04:32.135Z,1016.7
2016-09-23T06:05:32.114Z,1016.64
2016-09-23T06:06:32.106Z,1016.65
2016-09-23T06:07:32.082Z,1016.63
2016-09-23T06:08:32.068Z,1016.66
2016-09-23T06:09:32.049Z,1016.67
2016-09-23T06:10:32.041Z,1016.66
2016-09-23T06:11:32.018Z,1016.69
2016-09-23T06:12:32.005Z,1016.67
2016-09-23T06:13:31.986Z,1016.7
2016-09-23T06:14:31.968Z,1016.71
2016-09-23T06:15:31.955Z,1016.78
2016-09-23T06:16:31.936Z,1016.78
2016-09-23T06:17:31.921Z,1016.74
2016-09-23T06:18:31.904Z,1016.79
2016-09-23T06:19:31.888Z,1016.79
2016-09-23T06:20:31.872Z,1016.78
2016-09-23T06:21:31.863Z,1016.78
2016-09-23T06:22:31.841Z,1016.83
2016-09-23T06:23:31.821Z,1016.82
2016-09-23T06:24:31.806Z,1016.8
2016-09-23T06:25:31.790Z,1016.82
2016-09-23T06:26:31.773Z,1016.88
2016-09-23T06:27:31.758Z,1016.87
2016-09-23T06:28:31.739Z,1016.95
2016-09-23T06:29:31.726Z,1016.91
2016-09-23T06:30:31.712Z,1016.89
2016-09-23T06:31:31.693Z,1016.94
2016-09-23T06:32:31.678Z,1016.99
2016-09-23T06:33:31.658Z,1016.97
2016-09-23T06:34:31.658Z,1017.04
2016-09-23T06:35:31.632Z,1017.02
2016-09-23T06:36:31.627Z,1017.02
2016-09-23T06:37:31.603Z,1017.06
2016-09-23T06:38:31.580Z,1017.05
2016-09-23T06:39:31.560Z,1017.08
2016-09-23T06:40:31.545Z,1017.07
2016-09-23T06:41:31.530Z,1017.09
2016-09-23T06:42:31.512Z,1017.12
2016-09-23T06:43:31.498Z,1017.11
2016-09-23T06:44:31.482Z,1017.09
2016-09-23T06:45:31.463Z,1017.09
2016-09-23T06:46:31.449Z,1017.13
2016-09-23T06:47:31.432Z,1017.1
2016-09-23T06:48:31.419Z,1017.11
2016-09-23T06:49:31.400Z,1017.13
2016-09-23T06:50:31.383Z,1017.12
2016-09-23T06:51:31.368Z,1017.16
2016-09-23T06:52:31.350Z,1017.16
2016-09-23T06:53:31.337Z,1017.15
2016-09-23T06:54:31.316Z,1017.15
2016-09-23T06:55:31.301Z,1017.16
2016-09-23T06:56:31.290Z,1017.17
2016-09-23T06:57:31.266Z,1017.15
2016-09-23T06:58:31.254Z,1017.2
2016-09-23T06:59:31.234Z,1017.2
2016-09-23T07:00:31.219Z,1017.21
2016-09-23T07:01:31.204Z,1017.15
2016-09-23T07:02:31.188Z,1017.22
2016-09-23T07:03:31.170Z,1017.21
2016-09-23T07:04:31.152Z,1017.24
2016-09-23T07:05:31.139Z,1017.19
2016-09-23T07:06:31.122Z,1017.22
2016-09-23T07:07:31.105Z,1017.2
2016-09-23T07:08:31.091Z,1017.23
2016-09-23T07:09:31.071Z,1017.19
2016-09-23T07:10:31.057Z,1017.21
2016-09-23T07:11:31.042Z,1017.23
2016-09-23T07:12:31.031Z,1017.23
2016-09-23T07:13:31.008Z,1017.24
2016-09-23T07:14:30.992Z,1017.24
2016-09-23T07:15:30.976Z,1017.23
2016-09-23T07:16:30.963Z,1017.28
2016-09-23T07:17:30.945Z,1017.31
2016-09-23T07:18:30.926Z,1017.3
2016-09-23T07:19:30.912Z,1017.27
2016-09-23T07:20:30.893Z,1017.27
2016-09-23T07:21:30.880Z,1017.29
2016-09-23T07:22:30.860Z,1017.31
2016-09-23T07:23:30.851Z,1017.35
2016-09-23T07:24:30.828Z,1017.35
2016-09-23T07:25:30.811Z,1017.35
2016-09-23T07:26:30.796Z,1017.42
2016-09-23T07:27:30.779Z,1017.41
2016-09-23T07:28:30.765Z,1017.38
2016-09-23T07:29:30.745Z,1017.41
2016-09-23T07:30:30.729Z,1017.43
2016-09-23T07:31:30.714Z,1017.5
2016-09-23T07:32:30.697Z,1017.48
2016-09-23T07:33:30.679Z,1017.53
2016-09-23T07:34:30.665Z,1017.53
2016-09-23T07:35:30.646Z,1017.47
2016-09-23T07:36:30.631Z,1017.47
2016-09-23T07:37:30.612Z,1017.51
2016-09-23T07:38:30.598Z,1017.49
2016-09-23T07:39:30.583Z,1017.57
2016-09-23T07:40:30.563Z,1017.57
2016-09-23T07:41:30.546Z,1017.58
2016-09-23T07:42:30.531Z,1017.54
2016-09-23T07:43:30.515Z,1017.56
2016-09-23T07:44:30.495Z,1017.63
2016-09-23T07:45:30.482Z,1017.61
2016-09-23T07:46:30.464Z,1017.57
2016-09-23T07:47:30.447Z,1017.6
2016-09-23T07:48:30.431Z,1017.57
2016-09-23T07:49:30.415Z,1017.57
2016-09-23T07:50:30.401Z,1017.63
2016-09-23T07:51:30.379Z,1017.62
2016-09-23T07:52:30.363Z,1017.59
2016-09-23T07:53:30.353Z,1017.57
2016-09-23T07:54:30.330Z,1017.57
2016-09-23T07:55:30.315Z,1017.58
2016-09-23T07:56:30.300Z,1017.62
2016-09-23T07:57:30.280Z,1017.57
2016-09-23T07:58:30.263Z,1017.61
2016-09-23T07:59:30.250Z,1017.59
2016-09-23T08:00:30.232Z,1017.62
2016-09-23T08:01:30.213Z,1017.68
2016-09-23T08:02:30.197Z,1017.65
2016-09-23T08:03:30.183Z,1017.66
2016-09-23T08:04:30.166Z,1017.7
2016-09-23T08:05:30.153Z,1017.68
2016-09-23T08:06:30.132Z,1017.66
2016-09-23T08:07:30.118Z,1017.68
2016-09-23T08:08:30.097Z,1017.59
2016-09-23T08:09:30.120Z,1017.63
2016-09-23T08:10:30.072Z,1017.68
2016-09-23T08:11:30.048Z,1017.68
2016-09-23T08:12:30.034Z,1017.73
2016-09-23T08:13:30.015Z,1017.71
2016-09-23T08:14:30.000Z,1017.71
2016-09-23T08:15:29.994Z,1017.77
2016-09-23T08:16:29.973Z,1017.84
2016-09-23T08:17:29.986Z,1017.92
2016-09-23T08:18:29.932Z,1017.95
2016-09-23T08:19:29.917Z,1017.98
2016-09-23T08:20:29.914Z,1017.99
2016-09-23T08:21:29.885Z,1018
2016-09-23T08:22:29.868Z,1018.01
2016-09-23T08:23:29.850Z,1018
2016-09-23T08:24:29.831Z,1017.96
2016-09-23T08:25:29.823Z,1017.95
2016-09-23T08:26:29.801Z,1017.94
2016-09-23T08:27:29.787Z,1017.95
2016-09-23T08:28:29.770Z,1018.02
2016-09-23T08:29:29.753Z,1017.99
2016-09-23T08:30:29.738Z,1018.01
2016-09-23T08:31:29.727Z,1018
2016-09-23T08:32:29.703Z,1017.99
2016-09-23T08:33:29.690Z,1017.98
2016-09-23T08:34:29.679Z,1018.03
2016-09-23T08:35:29.656Z,1018.02
2016-09-23T08:36:29.635Z,1018
2016-09-23T08:37:29.624Z,1017.99
2016-09-23T08:38:29.602Z,1018.03
2016-09-23T08:39:29.586Z,1018
2016-09-23T08:40:29.569Z,1018.02
2016-09-23T08:41:29.552Z,1018.06
2016-09-23T08:42:29.536Z,1018.05
2016-09-23T08:43:29.521Z,1018
2016-09-23T08:44:29.504Z,1017.93
2016-09-23T08:45:29.489Z,1017.96
2016-09-23T08:46:29.468Z,1017.95
2016-09-23T08:47:29.455Z,1017.94
2016-09-23T08:48:29.439Z,1018
2016-09-23T08:49:29.434Z,1018.04
2016-09-23T08:50:29.406Z,1018.05
2016-09-23T08:51:29.389Z,1018.03
2016-09-23T08:52:29.373Z,1018.09
2016-09-23T08:53:29.356Z,1018.07
2016-09-23T08:54:29.337Z,1018.04
2016-09-23T08:55:29.329Z,1018.02
2016-09-23T08:56:29.312Z,1018.06
2016-09-23T08:57:29.286Z,1018.08
2016-09-23T08:58:29.276Z,1018.06
2016-09-23T08:59:29.260Z,1018.12
2016-09-23T09:00:29.245Z,1018.12
2016-09-23T09:01:29.227Z,1018.17
2016-09-23T09:02:29.213Z,1018.14
2016-09-23T09:03:29.195Z,1018.14
2016-09-23T09:04:29.178Z,1018.14
2016-09-23T09:05:29.161Z,1018.19
2016-09-23T09:06:29.148Z,1018.18
2016-09-23T09:07:29.132Z,1018.17
2016-09-23T09:08:29.111Z,1018.2
2016-09-23T09:09:29.096Z,1018.19
2016-09-23T09:10:29.080Z,1018.16
2016-09-23T09:11:29.062Z,1018.18
2016-09-23T09:12:29.048Z,1018.21
2016-09-23T09:13:29.029Z,1018.23
2016-09-23T09:14:29.016Z,1018.23
2016-09-23T09:15:28.998Z,1018.27
2016-09-23T09:16:28.998Z,1018.19
2016-09-23T09:17:28.964Z,1018.26
2016-09-23T09:18:28.959Z,1018.22
2016-09-23T09:19:28.935Z,1018.24
2016-09-23T09:20:28.915Z,1018.24
2016-09-23T09:21:28.903Z,1018.25
2016-09-23T09:22:28.893Z,1018.27
2016-09-23T09:23:28.867Z,1018.29
2016-09-23T09:24:28.849Z,1018.26
2016-09-23T09:25:28.836Z,1018.21
2016-09-23T09:26:28.825Z,1018.21
2016-09-23T09:27:28.804Z,1018.23
2016-09-23T09:28:28.785Z,1018.21
2016-09-23T09:29:28.879Z,1018.22
2016-09-23T09:30:28.751Z,1018.23
2016-09-23T09:31:28.737Z,1018.26
2016-09-23T09:32:28.721Z,1018.23
2016-09-23T09:33:28.707Z,1018.28
2016-09-23T09:34:28.689Z,1018.18
2016-09-23T09:35:28.671Z,1018.19
2016-09-23T09:36:28.657Z,1018.27
2016-09-23T09:37:28.640Z,1018.28
2016-09-23T09:38:28.627Z,1018.28
2016-09-23T09:39:28.612Z,1018.29
2016-09-23T09:40:28.590Z,1018.25
2016-09-23T09:41:28.589Z,1018.3
2016-09-23T09:42:28.563Z,1018.26
2016-09-23T09:43:28.553Z,1018.25
2016-09-23T09:44:28.525Z,1018.3
2016-09-23T09:45:28.510Z,1018.24
2016-09-23T09:46:28.493Z,1018.25
2016-09-23T09:47:28.478Z,1018.24
2016-09-23T09:48:28.459Z,1018.22
2016-09-23T09:49:28.445Z,1018.22
2016-09-23T09:50:28.430Z,1018.21
2016-09-23T09:51:28.413Z,1018.22
2016-09-23T09:52:28.395Z,1018.26
2016-09-23T09:53:28.381Z,1018.25
2016-09-23T09:54:28.362Z,1018.22
2016-09-23T09:55:28.345Z,1018.25
2016-09-23T09:56:28.332Z,1018.26
2016-09-23T09:57:28.314Z,1018.21
2016-09-23T09:58:28.309Z,1018.24
2016-09-23T09:59:28.282Z,1018.22
2016-09-23T10:00:28.264Z,1018.21
2016-09-23T10:01:28.253Z,1018.16
2016-09-23T10:02:28.234Z,1018.23
2016-09-23T10:03:28.215Z,1018.22
2016-09-23T10:04:28.200Z,1018.23
2016-09-23T10:05:28.433Z,1018.21
2016-09-23T10:06:28.175Z,1018.24
2016-09-23T10:07:28.154Z,1018.2
2016-09-23T10:08:28.137Z,1018.2
2016-09-23T10:09:28.120Z,1018.28
2016-09-23T10:10:28.111Z,1018.18
2016-09-23T10:11:28.087Z,1018.22
2016-09-23T10:12:28.071Z,1018.24
2016-09-23T10:13:28.054Z,1018.25
2016-09-23T10:14:28.038Z,1018.26
2016-09-23T10:15:28.022Z,1018.25
2016-09-23T10:16:28.011Z,1018.25
2016-09-23T10:17:27.992Z,1018.23
2016-09-23T10:18:27.971Z,1018.25
2016-09-23T10:19:27.956Z,1018.27
2016-09-23T10:20:27.942Z,1018.27
2016-09-23T10:21:27.924Z,1018.31
2016-09-23T10:22:27.910Z,1018.32
2016-09-23T10:23:27.893Z,1018.3
2016-09-23T10:24:27.880Z,1018.32
2016-09-23T10:25:27.860Z,1018.33
2016-09-23T10:26:27.843Z,1018.33
2016-09-23T10:27:27.832Z,1018.31
2016-09-23T10:28:27.811Z,1018.32
2016-09-23T10:29:27.800Z,1018.31
2016-09-23T10:30:27.782Z,1018.3
2016-09-23T10:31:27.763Z,1018.31
2016-09-23T10:32:27.748Z,1018.36
2016-09-23T10:33:27.729Z,1018.31
2016-09-23T10:34:27.718Z,1018.34
2016-09-23T10:35:27.699Z,1018.36
2016-09-23T10:36:27.683Z,1018.3
2016-09-23T10:37:27.667Z,1018.35
2016-09-23T10:38:27.651Z,1018.36
2016-09-23T10:39:27.632Z,1018.37
2016-09-23T10:40:27.622Z,1018.39
2016-09-23T10:41:27.600Z,1018.46
2016-09-23T10:42:27.586Z,1018.43
2016-09-23T10:43:27.571Z,1018.47
2016-09-23T10:44:27.554Z,1018.43
2016-09-23T10:45:27.538Z,1018.45
2016-09-23T10:46:27.520Z,1018.41
2016-09-23T10:47:27.506Z,1018.37
2016-09-23T10:48:27.493Z,1018.36
2016-09-23T10:49:27.479Z,1018.42
2016-09-23T10:50:27.456Z,1018.39
2016-09-23T10:51:27.446Z,1018.41
2016-09-23T10:52:27.424Z,1018.39
2016-09-23T10:53:27.408Z,1018.43
2016-09-23T10:54:27.398Z,1018.44
2016-09-23T10:55:27.377Z,1018.5
2016-09-23T10:56:27.361Z,1018.47
2016-09-23T10:57:27.343Z,1018.48
2016-09-23T10:58:27.332Z,1018.51
2016-09-23T10:59:27.313Z,1018.46
2016-09-23T11:00:27.297Z,1018.47
2016-09-23T11:01:27.286Z,1018.46
2016-09-23T11:02:27.265Z,1018.45
2016-09-23T11:03:27.247Z,1018.46
2016-09-23T11:04:27.241Z,1018.43
2016-09-23T11:05:27.212Z,1018.49
2016-09-23T11:06:27.202Z,1018.48
2016-09-23T11:07:27.195Z,1018.47
2016-09-23T11:08:27.165Z,1018.46
2016-09-23T11:09:27.146Z,1018.47
2016-09-23T11:10:27.133Z,1018.46
2016-09-23T11:11:27.117Z,1018.46
2016-09-23T11:12:27.104Z,1018.45
2016-09-23T11:13:27.083Z,1018.46
2016-09-23T11:14:27.076Z,1018.45
2016-09-23T11:15:27.052Z,1018.46
2016-09-23T11:16:27.037Z,1018.49
2016-09-23T11:17:27.022Z,1018.49
2016-09-23T11:18:27.005Z,1018.48
2016-09-23T11:19:26.995Z,1018.53
2016-09-23T11:20:26.978Z,1018.47
2016-09-23T11:21:26.963Z,1018.53
2016-09-23T11:22:26.942Z,1018.56
2016-09-23T11:23:26.926Z,1018.54
2016-09-23T11:24:26.905Z,1018.56
2016-09-23T11:25:26.893Z,1018.56
2016-09-23T11:26:26.872Z,1018.53
2016-09-23T11:27:26.854Z,1018.53
2016-09-23T11:28:26.841Z,1018.51
2016-09-23T11:29:26.833Z,1018.5
2016-09-23T11:30:26.811Z,1018.53
2016-09-23T11:31:26.799Z,1018.53
2016-09-23T11:32:26.775Z,1018.5
2016-09-23T11:33:26.766Z,1018.49
2016-09-23T11:34:26.747Z,1018.51
2016-09-23T11:35:26.732Z,1018.5
2016-09-23T11:36:26.714Z,1018.49
2016-09-23T11:37:26.697Z,1018.48
2016-09-23T11:38:26.682Z,1018.49
2016-09-23T11:39:26.667Z,1018.48
2016-09-23T11:40:26.647Z,1018.45
2016-09-23T11:41:26.630Z,1018.52
2016-09-23T11:42:26.616Z,1018.57
2016-09-23T11:43:26.601Z,1018.56
2016-09-23T11:44:26.589Z,1018.57
2016-09-23T11:45:26.569Z,1018.58
2016-09-23T11:46:26.560Z,1018.57
2016-09-23T11:47:26.537Z,1018.56
2016-09-23T11:48:26.530Z,1018.6
2016-09-23T11:49:26.503Z,1018.59
2016-09-23T11:50:26.490Z,1018.58
2016-09-23T11:51:26.476Z,1018.58
2016-09-23T11:52:26.465Z,1018.53
2016-09-23T11:53:26.443Z,1018.54
2016-09-23T11:54:26.426Z,1018.57
2016-09-23T11:55:26.411Z,1018.59
2016-09-23T11:56:26.396Z,1018.54
2016-09-23T11:57:26.375Z,1018.52
2016-09-23T11:58:26.361Z,1018.54
2016-09-23T11:59:26.414Z,1018.51
2016-09-23T12:00:26.330Z,1018.53
2016-09-23T12:01:26.322Z,1018.48
2016-09-23T12:02:26.298Z,1018.49
2016-09-23T12:03:26.280Z,1018.51
2016-09-23T12:04:26.265Z,1018.53
2016-09-23T12:05:26.249Z,1018.53
2016-09-23T12:06:26.233Z,1018.51
2016-09-23T12:07:26.219Z,1018.48
2016-09-23T12:08:26.203Z,1018.49